sensor_id;sensor_type;location;lat;lon;timestamp;P1;durP1;ratioP1;P2;durP2;ratioP2
9819;SDS011;4949;48.482;9.206;2023-05-07T00:03:37;4.10;;;3.30;;
9819;SDS011;4949;48.482;9.206;2023-05-07T00:08:41;3.20;;;2.80;;
9819;SDS011;4949;48.482;9.206;2023-05-07T00:13:42;3.73;;;3.13;;
9819;SDS011;4949;48.482;9.206;2023-05-07T00:18:43;2.83;;;2.63;;
9819;SDS011;4949;48.482;9.206;2023-05-07T00:23:44;3.43;;;3.13;;
9819;SDS011;4949;48.482;9.206;2023-05-07T00:28:45;3.37;;;3.17;;
9819;SDS011;4949;48.482;9.206;2023-05-07T00:33:46;4.20;;;3.23;;
9819;SDS011;4949;48.482;9.206;2023-05-07T00:38:47;3.10;;;2.80;;
9819;SDS011;4949;48.482;9.206;2023-05-07T00:43:47;3.17;;;2.83;;
9819;SDS011;4949;48.482;9.206;2023-05-07T00:48:51;4.00;;;3.70;;
9819;SDS011;4949;48.482;9.206;2023-05-07T00:53:53;6.23;;;5.67;;
9819;SDS011;4949;48.482;9.206;2023-05-07T00:58:54;8.57;;;7.20;;
9819;SDS011;4949;48.482;9.206;2023-05-07T01:03:56;7.63;;;6.83;;
9819;SDS011;4949;48.482;9.206;2023-05-07T01:08:59;6.40;;;5.77;;
9819;SDS011;4949;48.482;9.206;2023-05-07T01:14:00;7.90;;;7.30;;
9819;SDS011;4949;48.482;9.206;2023-05-07T01:19:02;7.40;;;6.80;;
9819;SDS011;4949;48.482;9.206;2023-05-07T01:24:04;6.63;;;6.03;;
9819;SDS011;4949;48.482;9.206;2023-05-07T01:29:07;9.17;;;6.00;;
9819;SDS011;4949;48.482;9.206;2023-05-07T01:34:08;6.87;;;5.90;;
9819;SDS011;4949;48.482;9.206;2023-05-07T01:39:13;6.17;;;5.57;;
9819;SDS011;4949;48.482;9.206;2023-05-07T01:44:17;7.30;;;6.60;;
9819;SDS011;4949;48.482;9.206;2023-05-07T01:49:19;6.70;;;6.10;;
9819;SDS011;4949;48.482;9.206;2023-05-07T01:54:20;6.30;;;5.80;;
9819;SDS011;4949;48.482;9.206;2023-05-07T01:59:28;6.30;;;5.80;;
9819;SDS011;4949;48.482;9.206;2023-05-07T02:04:29;6.73;;;5.43;;
9819;SDS011;4949;48.482;9.206;2023-05-07T02:09:32;5.57;;;5.17;;
9819;SDS011;4949;48.482;9.206;2023-05-07T02:14:35;7.30;;;4.80;;
9819;SDS011;4949;48.482;9.206;2023-05-07T02:19:35;6.00;;;5.40;;
9819;SDS011;4949;48.482;9.206;2023-05-07T02:24:36;5.20;;;4.80;;
9819;SDS011;4949;48.482;9.206;2023-05-07T02:29:39;6.10;;;5.50;;
9819;SDS011;4949;48.482;9.206;2023-05-07T02:34:43;5.73;;;5.20;;
9819;SDS011;4949;48.482;9.206;2023-05-07T02:39:44;5.77;;;5.33;;
9819;SDS011;4949;48.482;9.206;2023-05-07T02:44:44;4.97;;;4.60;;
9819;SDS011;4949;48.482;9.206;2023-05-07T02:49:45;6.93;;;4.77;;
9819;SDS011;4949;48.482;9.206;2023-05-07T02:54:46;5.10;;;4.70;;
9819;SDS011;4949;48.482;9.206;2023-05-07T02:59:46;4.30;;;3.90;;
9819;SDS011;4949;48.482;9.206;2023-05-07T03:04:47;4.93;;;4.47;;
9819;SDS011;4949;48.482;9.206;2023-05-07T03:09:50;4.53;;;4.17;;
9819;SDS011;4949;48.482;9.206;2023-05-07T03:14:53;4.73;;;4.43;;
9819;SDS011;4949;48.482;9.206;2023-05-07T03:19:54;4.43;;;4.00;;
9819;SDS011;4949;48.482;9.206;2023-05-07T03:24:55;4.90;;;4.50;;
9819;SDS011;4949;48.482;9.206;2023-05-07T03:29:56;5.93;;;4.50;;
9819;SDS011;4949;48.482;9.206;2023-05-07T03:34:57;6.97;;;4.27;;
9819;SDS011;4949;48.482;9.206;2023-05-07T03:40:01;5.10;;;4.60;;
9819;SDS011;4949;48.482;9.206;2023-05-07T03:45:02;5.70;;;5.20;;
9819;SDS011;4949;48.482;9.206;2023-05-07T03:50:03;5.90;;;5.27;;
9819;SDS011;4949;48.482;9.206;2023-05-07T03:55:05;5.70;;;4.40;;
9819;SDS011;4949;48.482;9.206;2023-05-07T04:00:09;7.30;;;5.30;;
9819;SDS011;4949;48.482;9.206;2023-05-07T04:05:11;4.70;;;4.30;;
9819;SDS011;4949;48.482;9.206;2023-05-07T04:10:14;7.67;;;5.20;;
9819;SDS011;4949;48.482;9.206;2023-05-07T04:15:15;5.00;;;4.60;;
9819;SDS011;4949;48.482;9.206;2023-05-07T04:20:19;5.60;;;5.10;;
9819;SDS011;4949;48.482;9.206;2023-05-07T04:25:24;5.73;;;4.30;;
9819;SDS011;4949;48.482;9.206;2023-05-07T04:30:29;4.90;;;4.57;;
9819;SDS011;4949;48.482;9.206;2023-05-07T04:35:30;4.57;;;4.10;;
9819;SDS011;4949;48.482;9.206;2023-05-07T04:40:31;5.47;;;5.00;;
9819;SDS011;4949;48.482;9.206;2023-05-07T04:45:32;5.60;;;4.73;;
9819;SDS011;4949;48.482;9.206;2023-05-07T04:50:35;6.03;;;5.00;;
9819;SDS011;4949;48.482;9.206;2023-05-07T04:55:35;5.43;;;4.93;;
9819;SDS011;4949;48.482;9.206;2023-05-07T05:00:41;5.10;;;4.70;;
9819;SDS011;4949;48.482;9.206;2023-05-07T05:05:42;5.40;;;4.97;;
9819;SDS011;4949;48.482;9.206;2023-05-07T05:10:45;6.60;;;6.00;;
9819;SDS011;4949;48.482;9.206;2023-05-07T05:15:48;4.53;;;4.23;;
9819;SDS011;4949;48.482;9.206;2023-05-07T05:20:52;4.97;;;4.57;;
9819;SDS011;4949;48.482;9.206;2023-05-07T05:25:56;6.10;;;5.60;;
9819;SDS011;4949;48.482;9.206;2023-05-07T05:30:57;5.77;;;5.30;;
9819;SDS011;4949;48.482;9.206;2023-05-07T05:36:01;7.27;;;5.63;;
9819;SDS011;4949;48.482;9.206;2023-05-07T05:41:02;5.30;;;4.57;;
9819;SDS011;4949;48.482;9.206;2023-05-07T05:46:05;5.30;;;4.90;;
9819;SDS011;4949;48.482;9.206;2023-05-07T05:51:06;5.90;;;5.40;;
9819;SDS011;4949;48.482;9.206;2023-05-07T05:56:07;6.10;;;5.50;;
9819;SDS011;4949;48.482;9.206;2023-05-07T06:01:08;5.20;;;4.70;;
9819;SDS011;4949;48.482;9.206;2023-05-07T06:06:12;6.00;;;5.57;;
9819;SDS011;4949;48.482;9.206;2023-05-07T06:11:17;4.63;;;4.30;;
9819;SDS011;4949;48.482;9.206;2023-05-07T06:16:18;6.07;;;5.47;;
9819;SDS011;4949;48.482;9.206;2023-05-07T06:21:18;5.63;;;5.00;;
9819;SDS011;4949;48.482;9.206;2023-05-07T06:26:19;6.40;;;5.80;;
9819;SDS011;4949;48.482;9.206;2023-05-07T06:31:21;5.90;;;5.40;;
9819;SDS011;4949;48.482;9.206;2023-05-07T06:36:22;8.13;;;5.90;;
9819;SDS011;4949;48.482;9.206;2023-05-07T06:41:23;5.90;;;5.40;;
9819;SDS011;4949;48.482;9.206;2023-05-07T06:46:23;4.97;;;4.57;;
9819;SDS011;4949;48.482;9.206;2023-05-07T06:51:24;5.57;;;5.17;;
9819;SDS011;4949;48.482;9.206;2023-05-07T06:56:26;6.07;;;5.63;;
9819;SDS011;4949;48.482;9.206;2023-05-07T07:01:27;5.40;;;4.90;;
9819;SDS011;4949;48.482;9.206;2023-05-07T07:06:33;6.00;;;5.50;;
9819;SDS011;4949;48.482;9.206;2023-05-07T07:11:34;5.07;;;4.67;;
9819;SDS011;4949;48.482;9.206;2023-05-07T07:16:35;4.90;;;4.50;;
9819;SDS011;4949;48.482;9.206;2023-05-07T07:21:36;4.87;;;4.47;;
9819;SDS011;4949;48.482;9.206;2023-05-07T07:26:37;4.73;;;4.33;;
9819;SDS011;4949;48.482;9.206;2023-05-07T07:31:45;4.47;;;4.17;;
9819;SDS011;4949;48.482;9.206;2023-05-07T07:36:46;5.60;;;5.20;;
9819;SDS011;4949;48.482;9.206;2023-05-07T07:41:46;6.10;;;5.20;;
9819;SDS011;4949;48.482;9.206;2023-05-07T07:46:50;4.97;;;4.57;;
9819;SDS011;4949;48.482;9.206;2023-05-07T07:51:50;5.60;;;4.77;;
9819;SDS011;4949;48.482;9.206;2023-05-07T07:56:51;4.90;;;4.50;;
9819;SDS011;4949;48.482;9.206;2023-05-07T08:01:52;4.83;;;4.27;;
9819;SDS011;4949;48.482;9.206;2023-05-07T08:06:55;4.63;;;4.23;;
9819;SDS011;4949;48.482;9.206;2023-05-07T08:11:58;5.10;;;3.80;;
9819;SDS011;4949;48.482;9.206;2023-05-07T08:16:59;4.80;;;4.40;;
9819;SDS011;4949;48.482;9.206;2023-05-07T08:22:00;6.33;;;5.40;;
9819;SDS011;4949;48.482;9.206;2023-05-07T08:27:03;5.40;;;3.97;;
9819;SDS011;4949;48.482;9.206;2023-05-07T08:32:04;5.83;;;5.20;;
9819;SDS011;4949;48.482;9.206;2023-05-07T08:37:06;6.43;;;4.30;;
9819;SDS011;4949;48.482;9.206;2023-05-07T08:42:10;4.97;;;4.60;;
9819;SDS011;4949;48.482;9.206;2023-05-07T08:47:12;4.83;;;4.43;;
9819;SDS011;4949;48.482;9.206;2023-05-07T08:52:14;4.87;;;4.47;;
9819;SDS011;4949;48.482;9.206;2023-05-07T08:57:19;5.90;;;5.13;;
9819;SDS011;4949;48.482;9.206;2023-05-07T09:02:21;4.97;;;4.50;;
9819;SDS011;4949;48.482;9.206;2023-05-07T09:07:22;4.50;;;4.10;;
9819;SDS011;4949;48.482;9.206;2023-05-07T09:12:26;6.37;;;5.50;;
9819;SDS011;4949;48.482;9.206;2023-05-07T09:17:26;5.17;;;4.10;;
9819;SDS011;4949;48.482;9.206;2023-05-07T09:22:31;4.80;;;4.30;;
9819;SDS011;4949;48.482;9.206;2023-05-07T09:27:36;6.13;;;4.43;;
9819;SDS011;4949;48.482;9.206;2023-05-07T09:32:37;5.77;;;5.27;;
9819;SDS011;4949;48.482;9.206;2023-05-07T09:37:40;6.00;;;5.60;;
9819;SDS011;4949;48.482;9.206;2023-05-07T09:42:42;4.77;;;4.37;;
9819;SDS011;4949;48.482;9.206;2023-05-07T09:47:42;7.13;;;4.40;;
9819;SDS011;4949;48.482;9.206;2023-05-07T09:52:47;5.60;;;4.10;;
9819;SDS011;4949;48.482;9.206;2023-05-07T09:57:52;3.90;;;3.60;;
9819;SDS011;4949;48.482;9.206;2023-05-07T10:02:54;4.20;;;3.90;;
9819;SDS011;4949;48.482;9.206;2023-05-07T10:07:57;4.10;;;3.80;;
9819;SDS011;4949;48.482;9.206;2023-05-07T10:12:59;4.40;;;4.00;;
9819;SDS011;4949;48.482;9.206;2023-05-07T10:18:05;4.00;;;3.60;;
9819;SDS011;4949;48.482;9.206;2023-05-07T10:23:10;3.77;;;3.47;;
9819;SDS011;4949;48.482;9.206;2023-05-07T10:28:15;4.40;;;3.30;;
9819;SDS011;4949;48.482;9.206;2023-05-07T10:33:18;3.40;;;3.20;;
9819;SDS011;4949;48.482;9.206;2023-05-07T10:38:22;3.33;;;3.07;;
9819;SDS011;4949;48.482;9.206;2023-05-07T10:43:23;3.53;;;3.30;;
9819;SDS011;4949;48.482;9.206;2023-05-07T10:48:26;3.00;;;2.80;;
9819;SDS011;4949;48.482;9.206;2023-05-07T10:53:30;4.13;;;3.73;;
9819;SDS011;4949;48.482;9.206;2023-05-07T10:58:31;6.77;;;3.60;;
9819;SDS011;4949;48.482;9.206;2023-05-07T11:03:33;4.13;;;3.07;;
9819;SDS011;4949;48.482;9.206;2023-05-07T11:13:54;7.77;;;7.03;;
9819;SDS011;4949;48.482;9.206;2023-05-07T11:18:57;3.93;;;3.53;;
9819;SDS011;4949;48.482;9.206;2023-05-07T11:23:58;5.57;;;3.93;;
9819;SDS011;4949;48.482;9.206;2023-05-07T11:29:00;8.90;;;7.90;;
9819;SDS011;4949;48.482;9.206;2023-05-07T11:34:01;4.30;;;4.00;;
9819;SDS011;4949;48.482;9.206;2023-05-07T11:39:02;5.70;;;4.90;;
9819;SDS011;4949;48.482;9.206;2023-05-07T11:44:03;4.30;;;4.00;;
9819;SDS011;4949;48.482;9.206;2023-05-07T11:49:04;4.97;;;4.57;;
9819;SDS011;4949;48.482;9.206;2023-05-07T11:54:08;4.63;;;4.10;;
9819;SDS011;4949;48.482;9.206;2023-05-07T11:59:11;3.87;;;3.53;;
9819;SDS011;4949;48.482;9.206;2023-05-07T12:04:14;5.60;;;4.53;;
9819;SDS011;4949;48.482;9.206;2023-05-07T12:09:20;4.80;;;3.97;;
9819;SDS011;4949;48.482;9.206;2023-05-07T12:14:26;3.40;;;3.10;;
9819;SDS011;4949;48.482;9.206;2023-05-07T12:19:29;4.10;;;3.70;;
9819;SDS011;4949;48.482;9.206;2023-05-07T12:24:45;3.47;;;3.17;;
9819;SDS011;4949;48.482;9.206;2023-05-07T12:29:50;4.10;;;3.80;;
9819;SDS011;4949;48.482;9.206;2023-05-07T12:34:51;3.70;;;3.40;;
9819;SDS011;4949;48.482;9.206;2023-05-07T12:40:13;3.90;;;3.60;;
9819;SDS011;4949;48.482;9.206;2023-05-07T12:45:16;3.90;;;3.53;;
9819;SDS011;4949;48.482;9.206;2023-05-07T12:50:17;3.50;;;3.20;;
9819;SDS011;4949;48.482;9.206;2023-05-07T12:55:21;3.83;;;3.53;;
9819;SDS011;4949;48.482;9.206;2023-05-07T13:00:37;3.60;;;3.40;;
9819;SDS011;4949;48.482;9.206;2023-05-07T13:05:41;4.40;;;3.97;;
9819;SDS011;4949;48.482;9.206;2023-05-07T13:10:42;4.53;;;4.13;;
9819;SDS011;4949;48.482;9.206;2023-05-07T13:15:43;3.70;;;3.40;;
9819;SDS011;4949;48.482;9.206;2023-05-07T13:20:43;3.87;;;3.43;;
9819;SDS011;4949;48.482;9.206;2023-05-07T13:25:47;3.87;;;3.53;;
9819;SDS011;4949;48.482;9.206;2023-05-07T13:30:48;3.93;;;3.53;;
9819;SDS011;4949;48.482;9.206;2023-05-07T13:35:51;5.10;;;3.50;;
9819;SDS011;4949;48.482;9.206;2023-05-07T13:40:52;4.50;;;3.73;;
9819;SDS011;4949;48.482;9.206;2023-05-07T13:45:56;3.90;;;3.60;;
9819;SDS011;4949;48.482;9.206;2023-05-07T13:50:56;5.53;;;4.20;;
9819;SDS011;4949;48.482;9.206;2023-05-07T13:56:00;4.90;;;3.60;;
9819;SDS011;4949;48.482;9.206;2023-05-07T14:01:01;5.30;;;4.33;;
9819;SDS011;4949;48.482;9.206;2023-05-07T14:06:07;5.90;;;4.23;;
9819;SDS011;4949;48.482;9.206;2023-05-07T14:11:07;4.13;;;3.83;;
9819;SDS011;4949;48.482;9.206;2023-05-07T14:16:11;4.90;;;4.50;;
9819;SDS011;4949;48.482;9.206;2023-05-07T14:21:11;5.73;;;4.57;;
9819;SDS011;4949;48.482;9.206;2023-05-07T14:26:13;4.60;;;3.90;;
9819;SDS011;4949;48.482;9.206;2023-05-07T14:31:13;4.17;;;3.77;;
9819;SDS011;4949;48.482;9.206;2023-05-07T14:36:14;4.67;;;3.90;;
9819;SDS011;4949;48.482;9.206;2023-05-07T14:41:15;3.93;;;3.53;;
9819;SDS011;4949;48.482;9.206;2023-05-07T14:46:17;4.77;;;4.23;;
9819;SDS011;4949;48.482;9.206;2023-05-07T14:51:18;6.10;;;5.60;;
9819;SDS011;4949;48.482;9.206;2023-05-07T14:56:20;4.80;;;4.50;;
9819;SDS011;4949;48.482;9.206;2023-05-07T15:01:21;4.40;;;4.10;;
9819;SDS011;4949;48.482;9.206;2023-05-07T15:06:22;5.50;;;5.00;;
9819;SDS011;4949;48.482;9.206;2023-05-07T15:11:26;4.37;;;4.00;;
9819;SDS011;4949;48.482;9.206;2023-05-07T15:16:31;5.17;;;3.50;;
9819;SDS011;4949;48.482;9.206;2023-05-07T15:21:33;4.00;;;3.60;;
9819;SDS011;4949;48.482;9.206;2023-05-07T15:26:43;5.40;;;3.40;;
9819;SDS011;4949;48.482;9.206;2023-05-07T15:31:44;3.57;;;3.27;;
9819;SDS011;4949;48.482;9.206;2023-05-07T15:36:48;4.97;;;4.47;;
9819;SDS011;4949;48.482;9.206;2023-05-07T15:41:50;3.53;;;3.23;;
9819;SDS011;4949;48.482;9.206;2023-05-07T15:46:51;3.87;;;3.40;;
9819;SDS011;4949;48.482;9.206;2023-05-07T15:51:52;4.10;;;3.70;;
9819;SDS011;4949;48.482;9.206;2023-05-07T15:56:54;4.13;;;3.53;;
9819;SDS011;4949;48.482;9.206;2023-05-07T16:01:57;5.50;;;3.73;;
9819;SDS011;4949;48.482;9.206;2023-05-07T16:06:58;3.83;;;3.43;;
9819;SDS011;4949;48.482;9.206;2023-05-07T16:11:59;4.00;;;3.60;;
9819;SDS011;4949;48.482;9.206;2023-05-07T16:17:03;3.93;;;3.63;;
9819;SDS011;4949;48.482;9.206;2023-05-07T16:22:03;4.83;;;4.17;;
9819;SDS011;4949;48.482;9.206;2023-05-07T16:27:04;4.00;;;3.70;;
9819;SDS011;4949;48.482;9.206;2023-05-07T16:32:08;6.07;;;5.57;;
9819;SDS011;4949;48.482;9.206;2023-05-07T16:37:08;4.33;;;3.90;;
9819;SDS011;4949;48.482;9.206;2023-05-07T16:42:09;5.70;;;3.83;;
9819;SDS011;4949;48.482;9.206;2023-05-07T16:47:10;5.43;;;4.70;;
9819;SDS011;4949;48.482;9.206;2023-05-07T16:52:11;3.97;;;3.67;;
9819;SDS011;4949;48.482;9.206;2023-05-07T16:57:11;5.77;;;4.40;;
9819;SDS011;4949;48.482;9.206;2023-05-07T17:02:15;4.93;;;4.50;;
9819;SDS011;4949;48.482;9.206;2023-05-07T17:07:15;4.50;;;4.10;;
9819;SDS011;4949;48.482;9.206;2023-05-07T17:12:16;4.60;;;3.90;;
9819;SDS011;4949;48.482;9.206;2023-05-07T17:17:17;4.37;;;4.07;;
9819;SDS011;4949;48.482;9.206;2023-05-07T17:22:20;4.07;;;3.67;;
9819;SDS011;4949;48.482;9.206;2023-05-07T17:27:24;4.67;;;4.17;;
9819;SDS011;4949;48.482;9.206;2023-05-07T17:32:25;5.10;;;4.60;;
9819;SDS011;4949;48.482;9.206;2023-05-07T17:37:26;5.30;;;4.53;;
9819;SDS011;4949;48.482;9.206;2023-05-07T17:42:27;4.70;;;4.30;;
9819;SDS011;4949;48.482;9.206;2023-05-07T17:47:31;4.73;;;4.33;;
9819;SDS011;4949;48.482;9.206;2023-05-07T17:52:37;5.13;;;4.63;;
9819;SDS011;4949;48.482;9.206;2023-05-07T17:57:41;6.50;;;4.47;;
9819;SDS011;4949;48.482;9.206;2023-05-07T18:02:42;6.10;;;4.87;;
9819;SDS011;4949;48.482;9.206;2023-05-07T18:07:46;5.00;;;4.50;;
9819;SDS011;4949;48.482;9.206;2023-05-07T18:12:46;4.30;;;4.00;;
9819;SDS011;4949;48.482;9.206;2023-05-07T18:17:52;4.63;;;4.23;;
9819;SDS011;4949;48.482;9.206;2023-05-07T18:22:57;4.50;;;4.10;;
9819;SDS011;4949;48.482;9.206;2023-05-07T18:28:00;4.53;;;4.23;;
9819;SDS011;4949;48.482;9.206;2023-05-07T18:33:06;4.73;;;4.20;;
9819;SDS011;4949;48.482;9.206;2023-05-07T18:38:07;5.27;;;4.77;;
9819;SDS011;4949;48.482;9.206;2023-05-07T18:43:07;7.50;;;6.57;;
9819;SDS011;4949;48.482;9.206;2023-05-07T18:48:10;5.33;;;4.87;;
9819;SDS011;4949;48.482;9.206;2023-05-07T18:53:11;5.70;;;5.30;;
9819;SDS011;4949;48.482;9.206;2023-05-07T18:58:12;4.53;;;4.13;;
9819;SDS011;4949;48.482;9.206;2023-05-07T19:03:12;4.53;;;4.13;;
9819;SDS011;4949;48.482;9.206;2023-05-07T19:08:14;4.87;;;4.37;;
9819;SDS011;4949;48.482;9.206;2023-05-07T19:13:18;4.10;;;3.80;;
9819;SDS011;4949;48.482;9.206;2023-05-07T19:18:19;5.77;;;5.10;;
9819;SDS011;4949;48.482;9.206;2023-05-07T19:23:22;5.50;;;4.00;;
9819;SDS011;4949;48.482;9.206;2023-05-07T19:28:22;5.57;;;5.07;;
9819;SDS011;4949;48.482;9.206;2023-05-07T19:33:25;5.83;;;5.43;;
9819;SDS011;4949;48.482;9.206;2023-05-07T19:38:28;5.87;;;5.37;;
9819;SDS011;4949;48.482;9.206;2023-05-07T19:43:29;5.30;;;4.90;;
9819;SDS011;4949;48.482;9.206;2023-05-07T19:48:37;5.40;;;4.90;;
9819;SDS011;4949;48.482;9.206;2023-05-07T19:53:37;6.00;;;5.50;;
9819;SDS011;4949;48.482;9.206;2023-05-07T19:58:38;5.67;;;5.20;;
9819;SDS011;4949;48.482;9.206;2023-05-07T20:03:42;5.90;;;5.40;;
9819;SDS011;4949;48.482;9.206;2023-05-07T20:08:46;5.80;;;5.20;;
9819;SDS011;4949;48.482;9.206;2023-05-07T20:13:49;5.90;;;5.17;;
9819;SDS011;4949;48.482;9.206;2023-05-07T20:18:50;6.13;;;5.63;;
9819;SDS011;4949;48.482;9.206;2023-05-07T20:23:53;4.90;;;4.60;;
9819;SDS011;4949;48.482;9.206;2023-05-07T20:28:54;5.77;;;4.97;;
9819;SDS011;4949;48.482;9.206;2023-05-07T20:33:57;4.50;;;4.10;;
9819;SDS011;4949;48.482;9.206;2023-05-07T20:38:57;5.80;;;5.40;;
9819;SDS011;4949;48.482;9.206;2023-05-07T20:43:58;5.67;;;5.13;;
9819;SDS011;4949;48.482;9.206;2023-05-07T20:49:01;5.23;;;4.83;;
9819;SDS011;4949;48.482;9.206;2023-05-07T20:54:02;5.23;;;4.83;;
9819;SDS011;4949;48.482;9.206;2023-05-07T20:59:03;5.80;;;4.77;;
9819;SDS011;4949;48.482;9.206;2023-05-07T21:04:07;5.83;;;5.30;;
9819;SDS011;4949;48.482;9.206;2023-05-07T21:09:07;8.20;;;7.50;;
9819;SDS011;4949;48.482;9.206;2023-05-07T21:14:08;5.43;;;4.70;;
9819;SDS011;4949;48.482;9.206;2023-05-07T21:19:09;6.17;;;5.57;;
9819;SDS011;4949;48.482;9.206;2023-05-07T21:24:10;7.80;;;5.47;;
9819;SDS011;4949;48.482;9.206;2023-05-07T21:29:13;6.30;;;4.90;;
9819;SDS011;4949;48.482;9.206;2023-05-07T21:34:14;4.80;;;4.50;;
9819;SDS011;4949;48.482;9.206;2023-05-07T21:39:14;4.80;;;4.40;;
9819;SDS011;4949;48.482;9.206;2023-05-07T21:44:21;6.50;;;5.33;;
9819;SDS011;4949;48.482;9.206;2023-05-07T21:49:22;5.37;;;4.97;;
9819;SDS011;4949;48.482;9.206;2023-05-07T21:54:22;6.33;;;5.73;;
9819;SDS011;4949;48.482;9.206;2023-05-07T21:59:23;5.53;;;5.03;;
9819;SDS011;4949;48.482;9.206;2023-05-07T22:04:24;6.17;;;5.50;;
9819;SDS011;4949;48.482;9.206;2023-05-07T22:09:25;6.07;;;5.50;;
9819;SDS011;4949;48.482;9.206;2023-05-07T22:14:31;8.20;;;5.97;;
9819;SDS011;4949;48.482;9.206;2023-05-07T22:19:31;5.70;;;5.20;;
9819;SDS011;4949;48.482;9.206;2023-05-07T22:24:35;5.70;;;5.20;;
9819;SDS011;4949;48.482;9.206;2023-05-07T22:29:36;5.83;;;5.30;;
9819;SDS011;4949;48.482;9.206;2023-05-07T22:34:36;6.37;;;5.77;;
9819;SDS011;4949;48.482;9.206;2023-05-07T22:39:40;6.83;;;6.23;;
9819;SDS011;4949;48.482;9.206;2023-05-07T22:44:43;6.57;;;6.03;;
9819;SDS011;4949;48.482;9.206;2023-05-07T22:49:46;5.87;;;5.40;;
9819;SDS011;4949;48.482;9.206;2023-05-07T22:54:47;6.10;;;5.60;;
9819;SDS011;4949;48.482;9.206;2023-05-07T22:59:51;8.77;;;5.73;;
9819;SDS011;4949;48.482;9.206;2023-05-07T23:04:58;6.90;;;6.30;;
9819;SDS011;4949;48.482;9.206;2023-05-07T23:09:59;6.53;;;5.87;;
9819;SDS011;4949;48.482;9.206;2023-05-07T23:15:00;6.27;;;5.17;;
9819;SDS011;4949;48.482;9.206;2023-05-07T23:20:06;5.63;;;5.23;;
9819;SDS011;4949;48.482;9.206;2023-05-07T23:25:10;11.90;;;5.70;;
9819;SDS011;4949;48.482;9.206;2023-05-07T23:30:14;6.60;;;5.43;;
9819;SDS011;4949;48.482;9.206;2023-05-07T23:35:18;5.43;;;4.93;;
9819;SDS011;4949;48.482;9.206;2023-05-07T23:40:21;6.20;;;5.70;;
9819;SDS011;4949;48.482;9.206;2023-05-07T23:45:22;5.77;;;5.37;;
9819;SDS011;4949;48.482;9.206;2023-05-07T23:50:25;5.40;;;4.97;;
9819;SDS011;4949;48.482;9.206;2023-05-07T23:55:26;5.90;;;5.40;;
